Terminal Aerodrome Forecast
Issued by NWS Hastings, NE

Home | Current Version | Previous Version | Text Only | Print | Product List | Glossary On
Versions: 1 2 3 4 5 6 7 8 9 10 11 12 13 14 15 16 17 18 19 20 21 22 23 24 25 26 27 28 29 30 31 32 33 34 35 36 37 38 39 40 41
000
FTUS43 KGID 110536
TAFGRI
TAF
KGRI 110536Z 1106/1206 16015KT P6SM SCT120
     FM110900 16008KT 4SM BR BKN020 OVC120 WS015/21040KT
     FM111300 16007KT P6SM BKN120
     FM111800 16012KT P6SM SCT120=

USA.gov is the U.S. government's official web portal to all federal, state and local government web resources and services.